sensor_id;sensor_type;location;lat;lon;timestamp;P1;durP1;ratioP1;P2;durP2;ratioP2
77105;SDS011;66057;54.718;18.426;2023-05-19T00:00:14;8.18;;;3.05;;
77105;SDS011;66057;54.718;18.426;2023-05-19T00:03:04;9.00;;;4.35;;
77105;SDS011;66057;54.718;18.426;2023-05-19T00:05:46;18.83;;;5.63;;
77105;SDS011;66057;54.718;18.426;2023-05-19T00:08:26;8.75;;;5.05;;
77105;SDS011;66057;54.718;18.426;2023-05-19T00:10:58;9.90;;;4.43;;
77105;SDS011;66057;54.718;18.426;2023-05-19T00:13:33;13.82;;;5.10;;
77105;SDS011;66057;54.718;18.426;2023-05-19T00:15:59;10.30;;;4.05;;
77105;SDS011;66057;54.718;18.426;2023-05-19T00:18:38;11.13;;;5.40;;
77105;SDS011;66057;54.718;18.426;2023-05-19T00:21:14;10.57;;;5.78;;
77105;SDS011;66057;54.718;18.426;2023-05-19T00:23:43;10.15;;;5.10;;
77105;SDS011;66057;54.718;18.426;2023-05-19T00:26:14;12.60;;;4.90;;
77105;SDS011;66057;54.718;18.426;2023-05-19T00:28:49;12.68;;;5.43;;
77105;SDS011;66057;54.718;18.426;2023-05-19T00:31:18;11.75;;;3.97;;
77105;SDS011;66057;54.718;18.426;2023-05-19T00:33:48;10.85;;;4.22;;
77105;SDS011;66057;54.718;18.426;2023-05-19T00:36:17;9.98;;;4.25;;
77105;SDS011;66057;54.718;18.426;2023-05-19T00:38:46;8.65;;;4.00;;
77105;SDS011;66057;54.718;18.426;2023-05-19T00:41:15;9.82;;;4.20;;
77105;SDS011;66057;54.718;18.426;2023-05-19T00:43:41;8.60;;;3.25;;
77105;SDS011;66057;54.718;18.426;2023-05-19T00:46:08;9.13;;;4.07;;
77105;SDS011;66057;54.718;18.426;2023-05-19T00:48:35;11.52;;;3.88;;
77105;SDS011;66057;54.718;18.426;2023-05-19T00:51:04;6.30;;;2.83;;
77105;SDS011;66057;54.718;18.426;2023-05-19T00:53:31;10.10;;;3.15;;
77105;SDS011;66057;54.718;18.426;2023-05-19T00:55:58;7.88;;;2.42;;
77105;SDS011;66057;54.718;18.426;2023-05-19T00:58:25;7.05;;;3.13;;
77105;SDS011;66057;54.718;18.426;2023-05-19T01:00:57;8.00;;;3.22;;
77105;SDS011;66057;54.718;18.426;2023-05-19T01:03:33;5.88;;;3.35;;
77105;SDS011;66057;54.718;18.426;2023-05-19T01:06:00;5.40;;;3.08;;
77105;SDS011;66057;54.718;18.426;2023-05-19T01:08:33;7.03;;;2.85;;
77105;SDS011;66057;54.718;18.426;2023-05-19T01:11:03;6.65;;;3.00;;
77105;SDS011;66057;54.718;18.426;2023-05-19T01:13:33;6.28;;;3.33;;
77105;SDS011;66057;54.718;18.426;2023-05-19T01:16:08;7.47;;;3.65;;
77105;SDS011;66057;54.718;18.426;2023-05-19T01:21:53;8.02;;;3.28;;
77105;SDS011;66057;54.718;18.426;2023-05-19T01:33:00;8.85;;;3.03;;
77105;SDS011;66057;54.718;18.426;2023-05-19T01:35:29;5.53;;;2.60;;
77105;SDS011;66057;54.718;18.426;2023-05-19T01:37:57;8.45;;;3.08;;
77105;SDS011;66057;54.718;18.426;2023-05-19T01:40:29;9.38;;;3.00;;
77105;SDS011;66057;54.718;18.426;2023-05-19T01:42:58;7.97;;;3.17;;
77105;SDS011;66057;54.718;18.426;2023-05-19T01:45:29;7.85;;;3.33;;
77105;SDS011;66057;54.718;18.426;2023-05-19T01:47:57;5.95;;;3.00;;
77105;SDS011;66057;54.718;18.426;2023-05-19T01:50:26;4.95;;;2.33;;
77105;SDS011;66057;54.718;18.426;2023-05-19T01:52:58;4.97;;;2.60;;
77105;SDS011;66057;54.718;18.426;2023-05-19T01:55:30;3.55;;;2.42;;
77105;SDS011;66057;54.718;18.426;2023-05-19T01:58:08;11.38;;;3.97;;
77105;SDS011;66057;54.718;18.426;2023-05-19T02:04:00;5.75;;;2.85;;
77105;SDS011;66057;54.718;18.426;2023-05-19T02:09:53;5.10;;;2.63;;
77105;SDS011;66057;54.718;18.426;2023-05-19T02:12:35;5.82;;;2.90;;
77105;SDS011;66057;54.718;18.426;2023-05-19T02:18:03;6.82;;;2.65;;
77105;SDS011;66057;54.718;18.426;2023-05-19T02:20:30;6.43;;;3.17;;
77105;SDS011;66057;54.718;18.426;2023-05-19T02:22:57;7.43;;;3.03;;
77105;SDS011;66057;54.718;18.426;2023-05-19T02:25:27;7.90;;;2.47;;
77105;SDS011;66057;54.718;18.426;2023-05-19T02:27:59;6.78;;;2.85;;
77105;SDS011;66057;54.718;18.426;2023-05-19T02:30:28;6.97;;;3.28;;
77105;SDS011;66057;54.718;18.426;2023-05-19T02:32:56;8.98;;;3.10;;
77105;SDS011;66057;54.718;18.426;2023-05-19T02:35:32;4.10;;;2.25;;
77105;SDS011;66057;54.718;18.426;2023-05-19T02:38:12;5.57;;;2.28;;
77105;SDS011;66057;54.718;18.426;2023-05-19T02:40:39;4.80;;;2.28;;
77105;SDS011;66057;54.718;18.426;2023-05-19T02:43:17;4.18;;;2.17;;
77105;SDS011;66057;54.718;18.426;2023-05-19T02:45:44;6.28;;;2.40;;
77105;SDS011;66057;54.718;18.426;2023-05-19T02:48:10;6.03;;;3.00;;
77105;SDS011;66057;54.718;18.426;2023-05-19T02:50:36;7.13;;;3.28;;
77105;SDS011;66057;54.718;18.426;2023-05-19T02:53:02;4.10;;;2.50;;
77105;SDS011;66057;54.718;18.426;2023-05-19T02:55:33;6.50;;;2.70;;
77105;SDS011;66057;54.718;18.426;2023-05-19T02:58:05;6.20;;;2.30;;
77105;SDS011;66057;54.718;18.426;2023-05-19T03:00:35;5.75;;;1.92;;
77105;SDS011;66057;54.718;18.426;2023-05-19T03:03:01;3.92;;;1.70;;
77105;SDS011;66057;54.718;18.426;2023-05-19T03:05:33;3.15;;;1.83;;
77105;SDS011;66057;54.718;18.426;2023-05-19T03:08:00;5.13;;;2.28;;
77105;SDS011;66057;54.718;18.426;2023-05-19T03:10:26;5.60;;;2.30;;
77105;SDS011;66057;54.718;18.426;2023-05-19T03:12:53;6.28;;;2.53;;
77105;SDS011;66057;54.718;18.426;2023-05-19T03:15:23;7.43;;;2.65;;
77105;SDS011;66057;54.718;18.426;2023-05-19T03:17:49;3.63;;;1.80;;
77105;SDS011;66057;54.718;18.426;2023-05-19T03:20:18;6.07;;;1.50;;
77105;SDS011;66057;54.718;18.426;2023-05-19T03:22:48;4.75;;;1.92;;
77105;SDS011;66057;54.718;18.426;2023-05-19T03:25:14;5.60;;;1.40;;
77105;SDS011;66057;54.718;18.426;2023-05-19T03:27:43;2.88;;;1.70;;
77105;SDS011;66057;54.718;18.426;2023-05-19T03:30:17;5.25;;;1.45;;
77105;SDS011;66057;54.718;18.426;2023-05-19T03:32:43;4.68;;;1.80;;
77105;SDS011;66057;54.718;18.426;2023-05-19T03:35:12;3.85;;;1.30;;
77105;SDS011;66057;54.718;18.426;2023-05-19T03:37:39;4.03;;;1.48;;
77105;SDS011;66057;54.718;18.426;2023-05-19T03:40:05;5.00;;;1.83;;
77105;SDS011;66057;54.718;18.426;2023-05-19T03:42:35;4.65;;;1.23;;
77105;SDS011;66057;54.718;18.426;2023-05-19T03:45:01;3.90;;;1.83;;
77105;SDS011;66057;54.718;18.426;2023-05-19T03:47:28;4.25;;;1.90;;
77105;SDS011;66057;54.718;18.426;2023-05-19T03:49:55;5.13;;;1.20;;
77105;SDS011;66057;54.718;18.426;2023-05-19T03:52:28;3.45;;;1.75;;
77105;SDS011;66057;54.718;18.426;2023-05-19T03:54:53;4.97;;;2.10;;
77105;SDS011;66057;54.718;18.426;2023-05-19T03:57:23;2.15;;;1.10;;
77105;SDS011;66057;54.718;18.426;2023-05-19T03:59:49;3.38;;;1.27;;
77105;SDS011;66057;54.718;18.426;2023-05-19T04:02:23;3.45;;;1.58;;
77105;SDS011;66057;54.718;18.426;2023-05-19T04:05:01;6.20;;;1.73;;
77105;SDS011;66057;54.718;18.426;2023-05-19T04:07:39;2.75;;;1.33;;
77105;SDS011;66057;54.718;18.426;2023-05-19T04:10:05;4.90;;;1.92;;
77105;SDS011;66057;54.718;18.426;2023-05-19T04:12:37;2.50;;;1.60;;
77105;SDS011;66057;54.718;18.426;2023-05-19T04:15:03;4.43;;;1.85;;
77105;SDS011;66057;54.718;18.426;2023-05-19T04:17:32;3.35;;;1.73;;
77105;SDS011;66057;54.718;18.426;2023-05-19T04:20:01;5.00;;;1.65;;
77105;SDS011;66057;54.718;18.426;2023-05-19T04:22:32;2.28;;;0.77;;
77105;SDS011;66057;54.718;18.426;2023-05-19T04:25:04;5.10;;;2.13;;
77105;SDS011;66057;54.718;18.426;2023-05-19T04:27:39;4.32;;;1.75;;
77105;SDS011;66057;54.718;18.426;2023-05-19T04:30:06;4.97;;;1.70;;
77105;SDS011;66057;54.718;18.426;2023-05-19T04:32:35;2.58;;;1.63;;
77105;SDS011;66057;54.718;18.426;2023-05-19T04:35:05;4.72;;;1.58;;
77105;SDS011;66057;54.718;18.426;2023-05-19T04:37:34;4.50;;;2.03;;
77105;SDS011;66057;54.718;18.426;2023-05-19T04:40:01;4.88;;;1.60;;
77105;SDS011;66057;54.718;18.426;2023-05-19T04:42:30;5.22;;;1.98;;
77105;SDS011;66057;54.718;18.426;2023-05-19T04:44:59;5.57;;;2.05;;
77105;SDS011;66057;54.718;18.426;2023-05-19T04:47:25;7.70;;;3.53;;
77105;SDS011;66057;54.718;18.426;2023-05-19T04:49:52;7.78;;;2.85;;
77105;SDS011;66057;54.718;18.426;2023-05-19T04:52:21;8.05;;;2.10;;
77105;SDS011;66057;54.718;18.426;2023-05-19T04:54:47;7.93;;;3.25;;
77105;SDS011;66057;54.718;18.426;2023-05-19T04:57:13;9.20;;;2.75;;
77105;SDS011;66057;54.718;18.426;2023-05-19T04:59:42;11.77;;;3.40;;
77105;SDS011;66057;54.718;18.426;2023-05-19T05:02:21;7.40;;;2.38;;
77105;SDS011;66057;54.718;18.426;2023-05-19T05:05:21;5.68;;;1.95;;
77105;SDS011;66057;54.718;18.426;2023-05-19T05:07:47;4.53;;;1.83;;
77105;SDS011;66057;54.718;18.426;2023-05-19T05:10:13;7.00;;;1.80;;
77105;SDS011;66057;54.718;18.426;2023-05-19T05:12:44;3.38;;;1.73;;
77105;SDS011;66057;54.718;18.426;2023-05-19T05:15:10;3.80;;;1.23;;
77105;SDS011;66057;54.718;18.426;2023-05-19T05:17:40;1.70;;;0.60;;
77105;SDS011;66057;54.718;18.426;2023-05-19T05:20:13;2.35;;;0.30;;
77105;SDS011;66057;54.718;18.426;2023-05-19T05:22:42;0.52;;;0.15;;
77105;SDS011;66057;54.718;18.426;2023-05-19T05:25:13;0.75;;;0.32;;
77105;SDS011;66057;54.718;18.426;2023-05-19T05:27:54;0.90;;;0.10;;
77105;SDS011;66057;54.718;18.426;2023-05-19T05:30:20;2.00;;;0.30;;
77105;SDS011;66057;54.718;18.426;2023-05-19T05:32:46;1.77;;;0.17;;
77105;SDS011;66057;54.718;18.426;2023-05-19T05:35:13;0.82;;;0.28;;
77105;SDS011;66057;54.718;18.426;2023-05-19T05:37:39;0.85;;;0.20;;
77105;SDS011;66057;54.718;18.426;2023-05-19T05:40:05;0.55;;;0.10;;
77105;SDS011;66057;54.718;18.426;2023-05-19T05:42:38;2.30;;;0.10;;
77105;SDS011;66057;54.718;18.426;2023-05-19T05:45:04;2.95;;;0.20;;
77105;SDS011;66057;54.718;18.426;2023-05-19T05:47:36;4.03;;;0.30;;
77105;SDS011;66057;54.718;18.426;2023-05-19T05:50:08;0.17;;;0.10;;
77105;SDS011;66057;54.718;18.426;2023-05-19T05:52:35;2.67;;;0.10;;
77105;SDS011;66057;54.718;18.426;2023-05-19T05:57:34;1.10;;;0.40;;
77105;SDS011;66057;54.718;18.426;2023-05-19T06:00:06;2.33;;;0.10;;
77105;SDS011;66057;54.718;18.426;2023-05-19T06:02:47;3.08;;;0.28;;
77105;SDS011;66057;54.718;18.426;2023-05-19T06:05:15;0.75;;;0.10;;
77105;SDS011;66057;54.718;18.426;2023-05-19T06:10:07;1.20;;;0.30;;
77105;SDS011;66057;54.718;18.426;2023-05-19T06:12:34;2.25;;;0.30;;
77105;SDS011;66057;54.718;18.426;2023-05-19T06:15:04;4.68;;;0.68;;
77105;SDS011;66057;54.718;18.426;2023-05-19T06:17:37;0.40;;;0.17;;
77105;SDS011;66057;54.718;18.426;2023-05-19T06:20:12;0.93;;;0.10;;
77105;SDS011;66057;54.718;18.426;2023-05-19T06:22:39;0.95;;;0.43;;
77105;SDS011;66057;54.718;18.426;2023-05-19T06:25:05;0.70;;;0.22;;
77105;SDS011;66057;54.718;18.426;2023-05-19T06:27:33;1.23;;;0.20;;
77105;SDS011;66057;54.718;18.426;2023-05-19T06:29:59;2.38;;;0.30;;
77105;SDS011;66057;54.718;18.426;2023-05-19T06:32:33;0.47;;;0.20;;
77105;SDS011;66057;54.718;18.426;2023-05-19T06:35:04;0.70;;;0.20;;
77105;SDS011;66057;54.718;18.426;2023-05-19T06:37:37;3.90;;;0.50;;
77105;SDS011;66057;54.718;18.426;2023-05-19T06:40:03;5.85;;;0.43;;
77105;SDS011;66057;54.718;18.426;2023-05-19T06:42:30;1.50;;;0.20;;
77105;SDS011;66057;54.718;18.426;2023-05-19T06:44:56;1.10;;;0.20;;
77105;SDS011;66057;54.718;18.426;2023-05-19T06:47:22;2.00;;;0.25;;
77105;SDS011;66057;54.718;18.426;2023-05-19T06:49:50;0.73;;;0.30;;
77105;SDS011;66057;54.718;18.426;2023-05-19T06:52:21;0.52;;;0.13;;
77105;SDS011;66057;54.718;18.426;2023-05-19T06:54:50;0.90;;;0.30;;
77105;SDS011;66057;54.718;18.426;2023-05-19T06:57:16;1.00;;;0.30;;
77105;SDS011;66057;54.718;18.426;2023-05-19T06:59:42;3.70;;;0.50;;
77105;SDS011;66057;54.718;18.426;2023-05-19T07:02:11;1.08;;;0.15;;
77105;SDS011;66057;54.718;18.426;2023-05-19T07:04:39;2.40;;;0.30;;
77105;SDS011;66057;54.718;18.426;2023-05-19T07:07:11;2.42;;;0.38;;
77105;SDS011;66057;54.718;18.426;2023-05-19T07:09:37;1.50;;;0.20;;
77105;SDS011;66057;54.718;18.426;2023-05-19T07:12:04;5.00;;;0.43;;
77105;SDS011;66057;54.718;18.426;2023-05-19T07:14:30;1.13;;;0.20;;
77105;SDS011;66057;54.718;18.426;2023-05-19T07:17:04;1.92;;;0.20;;
77105;SDS011;66057;54.718;18.426;2023-05-19T07:19:32;4.53;;;0.43;;
77105;SDS011;66057;54.718;18.426;2023-05-19T07:22:01;1.08;;;0.40;;
77105;SDS011;66057;54.718;18.426;2023-05-19T07:24:27;1.90;;;0.28;;
77105;SDS011;66057;54.718;18.426;2023-05-19T07:26:55;1.73;;;0.40;;
77105;SDS011;66057;54.718;18.426;2023-05-19T07:29:21;1.58;;;0.30;;
77105;SDS011;66057;54.718;18.426;2023-05-19T07:31:49;1.23;;;0.47;;
77105;SDS011;66057;54.718;18.426;2023-05-19T07:34:22;0.70;;;0.20;;
77105;SDS011;66057;54.718;18.426;2023-05-19T07:36:52;2.15;;;0.13;;
77105;SDS011;66057;54.718;18.426;2023-05-19T07:39:33;1.55;;;0.22;;
77105;SDS011;66057;54.718;18.426;2023-05-19T07:42:03;3.10;;;0.30;;
77105;SDS011;66057;54.718;18.426;2023-05-19T07:44:32;0.75;;;0.22;;
77105;SDS011;66057;54.718;18.426;2023-05-19T07:46:59;0.88;;;0.28;;
77105;SDS011;66057;54.718;18.426;2023-05-19T07:51:55;1.17;;;0.20;;
77105;SDS011;66057;54.718;18.426;2023-05-19T07:54:21;1.33;;;0.35;;
77105;SDS011;66057;54.718;18.426;2023-05-19T07:56:47;0.80;;;0.20;;
77105;SDS011;66057;54.718;18.426;2023-05-19T07:59:13;1.77;;;0.20;;
77105;SDS011;66057;54.718;18.426;2023-05-19T08:01:43;0.60;;;0.30;;
77105;SDS011;66057;54.718;18.426;2023-05-19T08:04:12;1.15;;;0.30;;
77105;SDS011;66057;54.718;18.426;2023-05-19T08:06:38;2.95;;;0.35;;
77105;SDS011;66057;54.718;18.426;2023-05-19T08:09:07;12.23;;;0.95;;
77105;SDS011;66057;54.718;18.426;2023-05-19T08:11:39;2.20;;;0.47;;
77105;SDS011;66057;54.718;18.426;2023-05-19T08:14:07;0.70;;;0.20;;
77105;SDS011;66057;54.718;18.426;2023-05-19T08:16:33;4.10;;;0.50;;
77105;SDS011;66057;54.718;18.426;2023-05-19T08:18:59;1.00;;;0.40;;
77105;SDS011;66057;54.718;18.426;2023-05-19T08:21:27;3.97;;;0.40;;
77105;SDS011;66057;54.718;18.426;2023-05-19T08:24:01;1.23;;;0.20;;
77105;SDS011;66057;54.718;18.426;2023-05-19T08:26:30;2.25;;;0.80;;
77105;SDS011;66057;54.718;18.426;2023-05-19T08:28:56;2.10;;;0.38;;
77105;SDS011;66057;54.718;18.426;2023-05-19T08:31:23;1.73;;;0.40;;
77105;SDS011;66057;54.718;18.426;2023-05-19T08:33:49;0.82;;;0.30;;
77105;SDS011;66057;54.718;18.426;2023-05-19T08:38:57;4.18;;;1.75;;
77105;SDS011;66057;54.718;18.426;2023-05-19T08:41:27;0.70;;;0.28;;
77105;SDS011;66057;54.718;18.426;2023-05-19T08:43:56;0.47;;;0.20;;
77105;SDS011;66057;54.718;18.426;2023-05-19T08:46:31;4.13;;;0.30;;
77105;SDS011;66057;54.718;18.426;2023-05-19T08:49:08;1.67;;;0.68;;
77105;SDS011;66057;54.718;18.426;2023-05-19T08:51:47;1.55;;;0.30;;
77105;SDS011;66057;54.718;18.426;2023-05-19T08:54:20;0.95;;;0.20;;
77105;SDS011;66057;54.718;18.426;2023-05-19T08:56:58;1.98;;;0.47;;
77105;SDS011;66057;54.718;18.426;2023-05-19T09:01:55;2.47;;;0.50;;
77105;SDS011;66057;54.718;18.426;2023-05-19T09:04:21;1.55;;;0.50;;
77105;SDS011;66057;54.718;18.426;2023-05-19T09:06:52;1.55;;;0.30;;
77105;SDS011;66057;54.718;18.426;2023-05-19T09:09:18;1.48;;;0.32;;
77105;SDS011;66057;54.718;18.426;2023-05-19T09:11:45;1.30;;;0.30;;
77105;SDS011;66057;54.718;18.426;2023-05-19T09:14:14;1.23;;;0.32;;
77105;SDS011;66057;54.718;18.426;2023-05-19T09:19:12;2.30;;;0.50;;
77105;SDS011;66057;54.718;18.426;2023-05-19T09:21:41;1.90;;;0.32;;
77105;SDS011;66057;54.718;18.426;2023-05-19T09:24:30;1.73;;;0.30;;
77105;SDS011;66057;54.718;18.426;2023-05-19T09:26:58;2.35;;;0.43;;
77105;SDS011;66057;54.718;18.426;2023-05-19T09:29:30;2.75;;;0.70;;
77105;SDS011;66057;54.718;18.426;2023-05-19T09:31:59;1.38;;;0.30;;
77105;SDS011;66057;54.718;18.426;2023-05-19T09:34:28;1.35;;;0.50;;
77105;SDS011;66057;54.718;18.426;2023-05-19T09:37:00;1.17;;;0.38;;
77105;SDS011;66057;54.718;18.426;2023-05-19T09:39:29;1.60;;;0.40;;
77105;SDS011;66057;54.718;18.426;2023-05-19T09:42:02;0.80;;;0.32;;
77105;SDS011;66057;54.718;18.426;2023-05-19T09:44:29;1.85;;;0.40;;
77105;SDS011;66057;54.718;18.426;2023-05-19T09:46:56;2.80;;;0.55;;
77105;SDS011;66057;54.718;18.426;2023-05-19T09:49:26;4.57;;;0.55;;
77105;SDS011;66057;54.718;18.426;2023-05-19T09:51:57;1.27;;;0.30;;
77105;SDS011;66057;54.718;18.426;2023-05-19T09:54:25;3.35;;;0.60;;
77105;SDS011;66057;54.718;18.426;2023-05-19T09:56:57;1.23;;;0.40;;
77105;SDS011;66057;54.718;18.426;2023-05-19T09:59:33;2.53;;;0.50;;
77105;SDS011;66057;54.718;18.426;2023-05-19T10:02:03;2.72;;;0.30;;
77105;SDS011;66057;54.718;18.426;2023-05-19T10:04:40;2.50;;;0.40;;
77105;SDS011;66057;54.718;18.426;2023-05-19T10:07:07;1.38;;;0.20;;
77105;SDS011;66057;54.718;18.426;2023-05-19T10:09:39;2.20;;;0.30;;
77105;SDS011;66057;54.718;18.426;2023-05-19T10:12:11;2.67;;;0.45;;
77105;SDS011;66057;54.718;18.426;2023-05-19T10:14:40;0.85;;;0.47;;
77105;SDS011;66057;54.718;18.426;2023-05-19T10:17:12;3.90;;;0.45;;
77105;SDS011;66057;54.718;18.426;2023-05-19T10:19:52;0.88;;;0.20;;
77105;SDS011;66057;54.718;18.426;2023-05-19T10:22:19;0.63;;;0.22;;
77105;SDS011;66057;54.718;18.426;2023-05-19T10:24:51;2.78;;;0.40;;
77105;SDS011;66057;54.718;18.426;2023-05-19T10:27:23;5.22;;;0.30;;
77105;SDS011;66057;54.718;18.426;2023-05-19T10:29:53;1.70;;;0.32;;
77105;SDS011;66057;54.718;18.426;2023-05-19T10:32:23;3.28;;;0.30;;
77105;SDS011;66057;54.718;18.426;2023-05-19T10:37:29;1.17;;;0.40;;
77105;SDS011;66057;54.718;18.426;2023-05-19T10:40:05;1.52;;;0.40;;
77105;SDS011;66057;54.718;18.426;2023-05-19T10:45:46;1.88;;;0.43;;
77105;SDS011;66057;54.718;18.426;2023-05-19T10:48:22;1.13;;;0.30;;
77105;SDS011;66057;54.718;18.426;2023-05-19T10:50:54;1.20;;;0.50;;
77105;SDS011;66057;54.718;18.426;2023-05-19T10:53:21;2.58;;;0.40;;
77105;SDS011;66057;54.718;18.426;2023-05-19T10:55:55;0.98;;;0.30;;
77105;SDS011;66057;54.718;18.426;2023-05-19T10:58:37;0.90;;;0.35;;
77105;SDS011;66057;54.718;18.426;2023-05-19T11:01:14;2.10;;;1.02;;
77105;SDS011;66057;54.718;18.426;2023-05-19T11:03:55;1.58;;;0.38;;
77105;SDS011;66057;54.718;18.426;2023-05-19T11:06:28;2.03;;;0.20;;
77105;SDS011;66057;54.718;18.426;2023-05-19T11:09:08;1.85;;;0.30;;
77105;SDS011;66057;54.718;18.426;2023-05-19T11:11:52;2.78;;;0.40;;
77105;SDS011;66057;54.718;18.426;2023-05-19T11:14:26;0.73;;;0.10;;
77105;SDS011;66057;54.718;18.426;2023-05-19T11:16:58;2.92;;;0.30;;
77105;SDS011;66057;54.718;18.426;2023-05-19T11:19:27;2.10;;;0.40;;
77105;SDS011;66057;54.718;18.426;2023-05-19T11:24:42;1.98;;;0.32;;
77105;SDS011;66057;54.718;18.426;2023-05-19T11:27:24;1.83;;;0.30;;
77105;SDS011;66057;54.718;18.426;2023-05-19T11:29:58;1.50;;;0.47;;
77105;SDS011;66057;54.718;18.426;2023-05-19T11:32:31;2.20;;;0.30;;
77105;SDS011;66057;54.718;18.426;2023-05-19T11:35:04;3.17;;;0.47;;
77105;SDS011;66057;54.718;18.426;2023-05-19T11:37:31;0.77;;;0.35;;
77105;SDS011;66057;54.718;18.426;2023-05-19T11:40:00;3.08;;;0.30;;
77105;SDS011;66057;54.718;18.426;2023-05-19T11:42:27;1.63;;;0.30;;
77105;SDS011;66057;54.718;18.426;2023-05-19T11:44:58;1.92;;;0.60;;
77105;SDS011;66057;54.718;18.426;2023-05-19T11:47:29;3.63;;;0.40;;
77105;SDS011;66057;54.718;18.426;2023-05-19T11:50:00;4.28;;;0.30;;
77105;SDS011;66057;54.718;18.426;2023-05-19T11:52:25;1.13;;;0.35;;
77105;SDS011;66057;54.718;18.426;2023-05-19T11:55:03;2.05;;;0.40;;
77105;SDS011;66057;54.718;18.426;2023-05-19T11:57:29;2.65;;;0.40;;
77105;SDS011;66057;54.718;18.426;2023-05-19T12:00:05;2.20;;;0.95;;
77105;SDS011;66057;54.718;18.426;2023-05-19T12:02:34;3.20;;;0.60;;
77105;SDS011;66057;54.718;18.426;2023-05-19T12:05:00;1.05;;;0.40;;
77105;SDS011;66057;54.718;18.426;2023-05-19T12:07:26;1.30;;;0.40;;
77105;SDS011;66057;54.718;18.426;2023-05-19T12:09:53;1.60;;;0.50;;
77105;SDS011;66057;54.718;18.426;2023-05-19T12:12:20;1.70;;;0.30;;
77105;SDS011;66057;54.718;18.426;2023-05-19T12:14:50;1.20;;;0.47;;
77105;SDS011;66057;54.718;18.426;2023-05-19T12:17:17;1.70;;;0.47;;
77105;SDS011;66057;54.718;18.426;2023-05-19T12:19:45;0.70;;;0.30;;
77105;SDS011;66057;54.718;18.426;2023-05-19T12:22:13;0.80;;;0.40;;
77105;SDS011;66057;54.718;18.426;2023-05-19T12:24:41;0.75;;;0.25;;
77105;SDS011;66057;54.718;18.426;2023-05-19T12:27:12;0.77;;;0.40;;
77105;SDS011;66057;54.718;18.426;2023-05-19T12:29:42;1.17;;;0.45;;
77105;SDS011;66057;54.718;18.426;2023-05-19T12:32:13;1.05;;;0.20;;
77105;SDS011;66057;54.718;18.426;2023-05-19T12:34:47;0.75;;;0.30;;
77105;SDS011;66057;54.718;18.426;2023-05-19T12:37:17;1.80;;;0.30;;
77105;SDS011;66057;54.718;18.426;2023-05-19T12:39:56;2.20;;;0.43;;
77105;SDS011;66057;54.718;18.426;2023-05-19T12:42:24;1.70;;;0.25;;
77105;SDS011;66057;54.718;18.426;2023-05-19T12:47:29;1.33;;;0.75;;
77105;SDS011;66057;54.718;18.426;2023-05-19T12:50:03;3.30;;;0.57;;
77105;SDS011;66057;54.718;18.426;2023-05-19T12:52:44;0.93;;;0.10;;
77105;SDS011;66057;54.718;18.426;2023-05-19T12:55:17;2.05;;;0.40;;
77105;SDS011;66057;54.718;18.426;2023-05-19T12:57:50;2.10;;;0.30;;
77105;SDS011;66057;54.718;18.426;2023-05-19T13:00:22;1.02;;;0.45;;
77105;SDS011;66057;54.718;18.426;2023-05-19T13:05:27;4.18;;;0.50;;
77105;SDS011;66057;54.718;18.426;2023-05-19T13:07:55;1.42;;;0.50;;
77105;SDS011;66057;54.718;18.426;2023-05-19T13:10:28;2.22;;;0.30;;
77105;SDS011;66057;54.718;18.426;2023-05-19T13:12:55;0.52;;;0.20;;
77105;SDS011;66057;54.718;18.426;2023-05-19T13:15:24;1.17;;;0.47;;
77105;SDS011;66057;54.718;18.426;2023-05-19T13:17:51;2.08;;;0.40;;
77105;SDS011;66057;54.718;18.426;2023-05-19T13:20:18;1.17;;;0.40;;
77105;SDS011;66057;54.718;18.426;2023-05-19T13:22:45;1.60;;;0.40;;
77105;SDS011;66057;54.718;18.426;2023-05-19T13:25:12;1.30;;;0.50;;
77105;SDS011;66057;54.718;18.426;2023-05-19T13:27:38;0.73;;;0.30;;
77105;SDS011;66057;54.718;18.426;2023-05-19T13:30:05;1.58;;;0.32;;
77105;SDS011;66057;54.718;18.426;2023-05-19T13:32:31;0.70;;;0.30;;
77105;SDS011;66057;54.718;18.426;2023-05-19T13:35:00;0.90;;;0.30;;
77105;SDS011;66057;54.718;18.426;2023-05-19T13:37:26;1.55;;;0.30;;
77105;SDS011;66057;54.718;18.426;2023-05-19T13:39:56;1.27;;;0.20;;
77105;SDS011;66057;54.718;18.426;2023-05-19T13:42:22;3.17;;;0.50;;
77105;SDS011;66057;54.718;18.426;2023-05-19T13:44:48;0.60;;;0.20;;
77105;SDS011;66057;54.718;18.426;2023-05-19T13:47:14;2.00;;;0.35;;
77105;SDS011;66057;54.718;18.426;2023-05-19T13:49:41;1.00;;;0.38;;
77105;SDS011;66057;54.718;18.426;2023-05-19T13:52:09;1.35;;;0.22;;
77105;SDS011;66057;54.718;18.426;2023-05-19T13:54:39;1.58;;;0.30;;
77105;SDS011;66057;54.718;18.426;2023-05-19T13:57:08;0.93;;;0.30;;
77105;SDS011;66057;54.718;18.426;2023-05-19T13:59:34;3.42;;;0.47;;
77105;SDS011;66057;54.718;18.426;2023-05-19T14:02:06;2.08;;;0.60;;
77105;SDS011;66057;54.718;18.426;2023-05-19T14:04:36;1.85;;;0.43;;
77105;SDS011;66057;54.718;18.426;2023-05-19T14:07:05;1.58;;;0.40;;
77105;SDS011;66057;54.718;18.426;2023-05-19T14:09:36;2.38;;;0.38;;
77105;SDS011;66057;54.718;18.426;2023-05-19T14:12:02;1.13;;;0.47;;
77105;SDS011;66057;54.718;18.426;2023-05-19T14:14:32;0.55;;;0.20;;
77105;SDS011;66057;54.718;18.426;2023-05-19T14:17:01;2.55;;;0.30;;
77105;SDS011;66057;54.718;18.426;2023-05-19T14:19:27;1.65;;;0.38;;
77105;SDS011;66057;54.718;18.426;2023-05-19T14:21:57;1.27;;;0.40;;
77105;SDS011;66057;54.718;18.426;2023-05-19T14:24:24;1.77;;;0.55;;
77105;SDS011;66057;54.718;18.426;2023-05-19T14:26:50;3.90;;;0.63;;
77105;SDS011;66057;54.718;18.426;2023-05-19T14:31:42;0.70;;;0.28;;
77105;SDS011;66057;54.718;18.426;2023-05-19T14:34:11;1.67;;;0.30;;
77105;SDS011;66057;54.718;18.426;2023-05-19T14:36:42;0.95;;;0.30;;
77105;SDS011;66057;54.718;18.426;2023-05-19T14:39:09;1.60;;;0.57;;
77105;SDS011;66057;54.718;18.426;2023-05-19T14:41:34;1.13;;;0.65;;
77105;SDS011;66057;54.718;18.426;2023-05-19T14:44:00;0.75;;;0.22;;
77105;SDS011;66057;54.718;18.426;2023-05-19T14:46:26;1.98;;;0.65;;
77105;SDS011;66057;54.718;18.426;2023-05-19T14:48:55;2.92;;;0.30;;
77105;SDS011;66057;54.718;18.426;2023-05-19T14:51:28;3.35;;;0.30;;
77105;SDS011;66057;54.718;18.426;2023-05-19T14:53:54;1.27;;;0.30;;
77105;SDS011;66057;54.718;18.426;2023-05-19T14:56:20;3.45;;;0.43;;
77105;SDS011;66057;54.718;18.426;2023-05-19T14:58:47;1.55;;;0.45;;
77105;SDS011;66057;54.718;18.426;2023-05-19T15:01:12;2.72;;;0.68;;
77105;SDS011;66057;54.718;18.426;2023-05-19T15:03:38;2.55;;;0.40;;
77105;SDS011;66057;54.718;18.426;2023-05-19T15:06:08;3.15;;;0.55;;
77105;SDS011;66057;54.718;18.426;2023-05-19T15:08:37;2.58;;;0.55;;
77105;SDS011;66057;54.718;18.426;2023-05-19T15:11:10;2.42;;;0.55;;
77105;SDS011;66057;54.718;18.426;2023-05-19T15:13:50;1.85;;;0.43;;
77105;SDS011;66057;54.718;18.426;2023-05-19T15:16:28;1.25;;;0.60;;
77105;SDS011;66057;54.718;18.426;2023-05-19T15:19:15;1.75;;;0.30;;
77105;SDS011;66057;54.718;18.426;2023-05-19T15:24:15;2.03;;;0.32;;
77105;SDS011;66057;54.718;18.426;2023-05-19T15:26:44;0.60;;;0.28;;
77105;SDS011;66057;54.718;18.426;2023-05-19T15:29:13;2.17;;;0.43;;
77105;SDS011;66057;54.718;18.426;2023-05-19T15:31:39;0.70;;;0.35;;
77105;SDS011;66057;54.718;18.426;2023-05-19T15:34:07;1.23;;;0.20;;
77105;SDS011;66057;54.718;18.426;2023-05-19T15:36:33;1.77;;;0.28;;
77105;SDS011;66057;54.718;18.426;2023-05-19T15:38:59;0.70;;;0.30;;
77105;SDS011;66057;54.718;18.426;2023-05-19T15:41:28;0.82;;;0.35;;
77105;SDS011;66057;54.718;18.426;2023-05-19T15:43:54;0.95;;;0.40;;